Fair Lady — 9HA2051 — position and weather

sailwx.info

Track history (hours):
 
Tides and Currents Weather Stations Pressure Air Temp Water Temp Dewpoint Dewpoint Depression Visibility Wind Speed Wind Dir Waves Ship Positions

Fair Lady

Last reported at 2017-Nov-23 07:31 UTC. Time now 2017-Nov-25 07:42 UTC.
Position N 23°58' E 118°12'.

Length 225 m; draft 6.9 m.

Type: Cargo ship. MMSI: 249875000.

Date/timePositionNaut miles runAvg speedWind from/ knotsBaromVisibWave heightAir tempDewpointWater temp
2017-Nov-23 07:31N 23°58' E 118°12'2 8.5
2017-Nov-23 07:18N 23°60' E 118°13'2 8.2
2017-Nov-23 07:01N 24°02' E 118°14'5 9.6
2017-Nov-23 06:31N 24°06' E 118°16'612.6
2017-Nov-23 06:01N 24°12' E 118°17'611.0
2017-Nov-23 05:30N 24°17' E 118°13'612.1
2017-Nov-23 05:00N 24°21' E 118°09'4 8.5
2017-Nov-23 04:31N 24°24' E 118°06'5 9.3
2017-Nov-23 04:01N 24°26' E 118°01'3 6.9
2017-Nov-23 03:30N 24°27' E 117°58'0 0.2
2017-Nov-23 02:59N 24°27' E 117°58'0 0.0
2017-Nov-23 02:29N 24°27' E 117°58'0 0.0
2017-Nov-23 01:59N 24°27' E 117°58'0 0.0
2017-Nov-23 01:20N 24°27' E 117°58'0 0.0
2017-Nov-23 00:59N 24°27' E 117°58'0 0.0
2017-Nov-23 00:26N 24°27' E 117°58'0 0.0
2017-Nov-22 23:56N 24°27' E 117°58'0 0.0
2017-Nov-22 23:29N 24°27' E 117°58'0 0.0
2017-Nov-22 22:56N 24°27' E 117°58'0 0.0
2017-Nov-22 22:26N 24°27' E 117°58'0 0.0
2017-Nov-22 21:56N 24°27' E 117°58'0 0.0
2017-Nov-22 21:26N 24°27' E 117°58'0 0.0
2017-Nov-22 20:56N 24°27' E 117°58'0 0.0
2017-Nov-22 20:29N 24°27' E 117°58'0 0.0
2017-Nov-22 19:56N 24°27' E 117°58'0 0.0
2017-Nov-22 19:20N 24°27' E 117°58'  
2017-Nov-19 05:20N 24°27' E 117°58'0 1.1
2017-Nov-19 05:00N 24°27' E 117°58'3 6.4
2017-Nov-19 04:31N 24°26' E 118°01'510.5
2017-Nov-19 04:01N 24°24' E 118°06'5 9.8
2017-Nov-19 03:31N 24°20' E 118°10'5 9.0
2017-Nov-19 03:00N 24°17' E 118°14'3 6.8
2017-Nov-19 02:31N 24°15' E 118°16'5 9.9
2017-Nov-19 01:59N 24°14' E 118°22'1 0.0
2017-Nov-18 01:04N 24°14' E 118°23'0 0.0
2017-Nov-18 00:46N 24°14' E 118°23'0 0.0
2017-Nov-18 00:28N 24°14' E 118°23'0 0.0
2017-Nov-17 21:52N 24°14' E 118°23'0 0.0
2017-Nov-17 21:16N 24°14' E 118°23'0 0.1
2017-Nov-17 20:58N 24°14' E 118°23'0 0.1
2017-Nov-17 20:16N 24°14' E 118°23'0 0.1
2017-Nov-17 17:40N 24°14' E 118°23'0 0.0
2017-Nov-17 17:16N 24°14' E 118°23'0 0.1
2017-Nov-17 16:46N 24°14' E 118°23'0 0.0
2017-Nov-17 10:04N 24°14' E 118°23'0 0.0
2017-Nov-17 08:28N 24°14' E 118°23'0 0.1
2017-Nov-17 07:52N 24°14' E 118°23'0 0.0
2017-Nov-17 07:22N 24°14' E 118°23'0 0.1
2017-Nov-17 06:28N 24°14' E 118°23'0 0.0
2017-Nov-17 01:10N 24°14' E 118°23'0 0.1
2017-Nov-17 00:40N 24°14' E 118°23'0 0.0
2017-Nov-17 00:28N 24°14' E 118°23'0 0.0
2017-Nov-16 23:34N 24°14' E 118°23'0 0.0
2017-Nov-16 21:04N 24°14' E 118°23'0 0.1
2017-Nov-16 20:58N 24°14' E 118°23'0 0.0
2017-Nov-16 20:22N 24°14' E 118°23'0 0.1
2017-Nov-16 19:58N 24°14' E 118°23'0 0.2
2017-Nov-16 19:22N 24°14' E 118°23'0 0.1
2017-Nov-16 18:46N 24°14' E 118°23'0 0.0
2017-Nov-16 18:16N 24°14' E 118°23'0 0.1
2017-Nov-16 17:52N 24°14' E 118°23'0 0.0
2017-Nov-16 09:34N 24°14' E 118°23'0 0.0
2017-Nov-15 23:10N 24°14' E 118°23'0 0.0
2017-Nov-15 22:46N 24°14' E 118°23'0 0.0
2017-Nov-15 22:22N 24°14' E 118°23'0 0.1
2017-Nov-15 20:52N 24°14' E 118°23'0 0.0
2017-Nov-15 07:28N 24°14' E 118°23'0 0.0
2017-Nov-15 06:58N 24°14' E 118°23'0 0.1
2017-Nov-15 06:28N 24°14' E 118°23'0 0.0
2017-Nov-15 05:58N 24°14' E 118°23'0 0.0
2017-Nov-15 05:28N 24°14' E 118°23'0 0.0
2017-Nov-15 04:55N 24°14' E 118°23'0 0.0
2017-Nov-15 04:28N 24°14' E 118°23'0 0.0
2017-Nov-15 03:58N 24°14' E 118°23'0 0.0
2017-Nov-15 03:28N 24°14' E 118°23'0 0.0
2017-Nov-15 02:58N 24°14' E 118°23'0 0.0
2017-Nov-15 02:28N 24°14' E 118°23'0 0.1
2017-Nov-15 01:58N 24°14' E 118°23'0 0.1
2017-Nov-15 01:28N 24°14' E 118°23'0 0.1
2017-Nov-15 00:58N 24°14' E 118°23'0 0.0
2017-Nov-15 00:22N 24°14' E 118°23'0 0.1
2017-Nov-14 23:52N 24°14' E 118°23'0 0.1
2017-Nov-14 22:37N 24°14' E 118°23'0 0.1
2017-Nov-14 22:25N 24°14' E 118°23'0 0.1
2017-Nov-14 21:58N 24°14' E 118°23'0 0.0
2017-Nov-14 21:28N 24°14' E 118°23'0 0.0
2017-Nov-14 20:55N 24°14' E 118°23'0 0.2
2017-Nov-14 20:16N 24°14' E 118°23'0 0.3
2017-Nov-14 19:52N 24°14' E 118°23'0 0.2
2017-Nov-14 19:22N 24°14' E 118°23'0 0.0
2017-Nov-14 18:58N 24°14' E 118°23'0 0.0
2017-Nov-14 18:28N 24°14' E 118°23'0 0.0
2017-Nov-14 17:58N 24°14' E 118°23'0 0.2
2017-Nov-14 17:28N 24°14' E 118°23'0 0.5
2017-Nov-14 17:00N 24°14' E 118°23'4 7.5
2017-Nov-14 16:30N 24°10' E 118°25'510.2
2017-Nov-14 16:00N 24°11' E 118°30'612.7
2017-Nov-14 15:30N 24°12' E 118°37'  
Track history (hours):
 
Tides and Currents Weather Stations Pressure Air Temp Water Temp Dewpoint Dewpoint Depression Visibility Wind Speed Wind Dir Waves Ship Positions

Fair Lady

Last reported at 2017-Nov-23 07:31 UTC. Time now 2017-Nov-25 07:42 UTC.
Position N 23°58' E 118°12'.

Length 225 m; draft 6.9 m.

Type: Cargo ship. MMSI: 249875000.

Date/timePositionNaut miles runAvg speedWind from/ knotsBaromVisibWave heightAir tempDewpointWater temp
2017-Nov-23 07:31N 23°58' E 118°12'2 8.5
2017-Nov-23 07:18N 23°60' E 118°13'2 8.2
2017-Nov-23 07:01N 24°02' E 118°14'5 9.6
2017-Nov-23 06:31N 24°06' E 118°16'612.6
2017-Nov-23 06:01N 24°12' E 118°17'611.0
2017-Nov-23 05:30N 24°17' E 118°13'612.1
2017-Nov-23 05:00N 24°21' E 118°09'4 8.5
2017-Nov-23 04:31N 24°24' E 118°06'5 9.3
2017-Nov-23 04:01N 24°26' E 118°01'3 6.9
2017-Nov-23 03:30N 24°27' E 117°58'0 0.2
2017-Nov-23 02:59N 24°27' E 117°58'0 0.0
2017-Nov-23 02:29N 24°27' E 117°58'0 0.0
2017-Nov-23 01:59N 24°27' E 117°58'0 0.0
2017-Nov-23 01:20N 24°27' E 117°58'0 0.0
2017-Nov-23 00:59N 24°27' E 117°58'0 0.0
2017-Nov-23 00:26N 24°27' E 117°58'0 0.0
2017-Nov-22 23:56N 24°27' E 117°58'0 0.0
2017-Nov-22 23:29N 24°27' E 117°58'0 0.0
2017-Nov-22 22:56N 24°27' E 117°58'0 0.0
2017-Nov-22 22:26N 24°27' E 117°58'0 0.0
2017-Nov-22 21:56N 24°27' E 117°58'0 0.0
2017-Nov-22 21:26N 24°27' E 117°58'0 0.0
2017-Nov-22 20:56N 24°27' E 117°58'0 0.0
2017-Nov-22 20:29N 24°27' E 117°58'0 0.0
2017-Nov-22 19:56N 24°27' E 117°58'0 0.0
2017-Nov-22 19:20N 24°27' E 117°58'  
2017-Nov-19 05:20N 24°27' E 117°58'0 1.1
2017-Nov-19 05:00N 24°27' E 117°58'3 6.4
2017-Nov-19 04:31N 24°26' E 118°01'510.5
2017-Nov-19 04:01N 24°24' E 118°06'5 9.8
2017-Nov-19 03:31N 24°20' E 118°10'5 9.0
2017-Nov-19 03:00N 24°17' E 118°14'3 6.8
2017-Nov-19 02:31N 24°15' E 118°16'5 9.9
2017-Nov-19 01:59N 24°14' E 118°22'1 0.0
2017-Nov-18 01:04N 24°14' E 118°23'0 0.0
2017-Nov-18 00:46N 24°14' E 118°23'0 0.0
2017-Nov-18 00:28N 24°14' E 118°23'0 0.0
2017-Nov-17 21:52N 24°14' E 118°23'0 0.0
2017-Nov-17 21:16N 24°14' E 118°23'0 0.1
2017-Nov-17 20:58N 24°14' E 118°23'0 0.1
2017-Nov-17 20:16N 24°14' E 118°23'0 0.1
2017-Nov-17 17:40N 24°14' E 118°23'0 0.0
2017-Nov-17 17:16N 24°14' E 118°23'0 0.1
2017-Nov-17 16:46N 24°14' E 118°23'0 0.0
2017-Nov-17 10:04N 24°14' E 118°23'0 0.0
2017-Nov-17 08:28N 24°14' E 118°23'0 0.1
2017-Nov-17 07:52N 24°14' E 118°23'0 0.0
2017-Nov-17 07:22N 24°14' E 118°23'0 0.1
2017-Nov-17 06:28N 24°14' E 118°23'0 0.0
2017-Nov-17 01:10N 24°14' E 118°23'0 0.1
2017-Nov-17 00:40N 24°14' E 118°23'0 0.0
2017-Nov-17 00:28N 24°14' E 118°23'0 0.0
2017-Nov-16 23:34N 24°14' E 118°23'0 0.0
2017-Nov-16 21:04N 24°14' E 118°23'0 0.1
2017-Nov-16 20:58N 24°14' E 118°23'0 0.0
2017-Nov-16 20:22N 24°14' E 118°23'0 0.1
2017-Nov-16 19:58N 24°14' E 118°23'0 0.2
2017-Nov-16 19:22N 24°14' E 118°23'0 0.1
2017-Nov-16 18:46N 24°14' E 118°23'0 0.0
2017-Nov-16 18:16N 24°14' E 118°23'0 0.1
2017-Nov-16 17:52N 24°14' E 118°23'0 0.0
2017-Nov-16 09:34N 24°14' E 118°23'0 0.0
2017-Nov-15 23:10N 24°14' E 118°23'0 0.0
2017-Nov-15 22:46N 24°14' E 118°23'0 0.0
2017-Nov-15 22:22N 24°14' E 118°23'0 0.1
2017-Nov-15 20:52N 24°14' E 118°23'0 0.0
2017-Nov-15 07:28N 24°14' E 118°23'0 0.0
2017-Nov-15 06:58N 24°14' E 118°23'0 0.1
2017-Nov-15 06:28N 24°14' E 118°23'0 0.0
2017-Nov-15 05:58N 24°14' E 118°23'0 0.0
2017-Nov-15 05:28N 24°14' E 118°23'0 0.0
2017-Nov-15 04:55N 24°14' E 118°23'0 0.0
2017-Nov-15 04:28N 24°14' E 118°23'0 0.0
2017-Nov-15 03:58N 24°14' E 118°23'0 0.0
2017-Nov-15 03:28N 24°14' E 118°23'0 0.0
2017-Nov-15 02:58N 24°14' E 118°23'0 0.0
2017-Nov-15 02:28N 24°14' E 118°23'0 0.1
2017-Nov-15 01:58N 24°14' E 118°23'0 0.1
2017-Nov-15 01:28N 24°14' E 118°23'0 0.1
2017-Nov-15 00:58N 24°14' E 118°23'0 0.0
2017-Nov-15 00:22N 24°14' E 118°23'0 0.1
2017-Nov-14 23:52N 24°14' E 118°23'0 0.1
2017-Nov-14 22:37N 24°14' E 118°23'0 0.1
2017-Nov-14 22:25N 24°14' E 118°23'0 0.1
2017-Nov-14 21:58N 24°14' E 118°23'0 0.0
2017-Nov-14 21:28N 24°14' E 118°23'0 0.0
2017-Nov-14 20:55N 24°14' E 118°23'0 0.2
2017-Nov-14 20:16N 24°14' E 118°23'0 0.3
2017-Nov-14 19:52N 24°14' E 118°23'0 0.2
2017-Nov-14 19:22N 24°14' E 118°23'0 0.0
2017-Nov-14 18:58N 24°14' E 118°23'0 0.0
2017-Nov-14 18:28N 24°14' E 118°23'0 0.0
2017-Nov-14 17:58N 24°14' E 118°23'0 0.2
2017-Nov-14 17:28N 24°14' E 118°23'0 0.5
2017-Nov-14 17:00N 24°14' E 118°23'4 7.5
2017-Nov-14 16:30N 24°10' E 118°25'510.2
2017-Nov-14 16:00N 24°11' E 118°30'612.7
2017-Nov-14 15:30N 24°12' E 118°37'  

Dump ship's entire track history